createdAt,value
2023-03-24T00:02:00.501Z,11.60
2023-03-24T00:05:03.849Z,11.60
2023-03-24T00:08:05.595Z,11.60
2023-03-24T00:11:09.628Z,11.60
2023-03-24T00:14:12.328Z,11.60
2023-03-24T00:17:14.406Z,11.60
2023-03-24T00:20:17.674Z,11.60
2023-03-24T00:23:19.387Z,11.50
2023-03-24T00:26:22.073Z,11.50
2023-03-24T00:29:27.345Z,11.40
2023-03-24T00:32:30.295Z,11.40
2023-03-24T00:35:32.114Z,11.40
2023-03-24T00:38:34.771Z,11.40
2023-03-24T00:41:36.558Z,11.40
2023-03-24T00:44:38.312Z,11.40
2023-03-24T00:47:40.199Z,11.40
2023-03-24T00:50:46.912Z,11.40
2023-03-24T00:53:48.686Z,11.40
2023-03-24T00:56:55.741Z,11.40
2023-03-24T00:59:57.712Z,11.40
2023-03-24T01:02:59.668Z,11.30
2023-03-24T01:06:18.486Z,11.30
2023-03-24T01:09:23.555Z,11.30
2023-03-24T01:12:27.537Z,11.40
2023-03-24T01:15:33.764Z,11.40
2023-03-24T01:18:40.582Z,11.50
2023-03-24T01:21:43.429Z,11.50
2023-03-24T01:24:45.214Z,11.50
2023-03-24T01:27:48.898Z,11.60
2023-03-24T01:30:54.370Z,11.60
2023-03-24T01:33:56.347Z,11.60
2023-03-24T01:36:58.194Z,11.70
2023-03-24T01:39:59.992Z,11.70
2023-03-24T01:43:01.897Z,11.70
2023-03-24T01:46:20.478Z,11.60
2023-03-24T01:49:23.866Z,11.70
2023-03-24T01:52:31.810Z,11.60
2023-03-24T01:55:33.884Z,11.60
2023-03-24T01:58:38.277Z,11.70
2023-03-24T02:01:40.249Z,11.70
2023-03-24T02:04:46.383Z,11.70
2023-03-24T02:08:22.786Z,11.70
2023-03-24T02:11:28.211Z,11.70
2023-03-24T02:14:30.349Z,11.70
2023-03-24T02:17:54.699Z,11.70
2023-03-24T02:21:08.736Z,11.60
2023-03-24T02:24:44.213Z,11.60
2023-03-24T02:27:58.226Z,11.60
2023-03-24T02:31:01.111Z,11.60
2023-03-24T02:34:18.060Z,11.60
2023-03-24T02:37:57.391Z,11.60
2023-03-24T02:41:08.688Z,11.60
2023-03-24T02:44:42.068Z,11.60
2023-03-24T02:47:50.853Z,11.60
2023-03-24T02:51:11.441Z,11.60
2023-03-24T02:54:38.236Z,11.50
2023-03-24T02:58:11.307Z,11.50
2023-03-24T03:01:31.904Z,11.50
2023-03-24T03:04:39.806Z,11.50
2023-03-24T03:07:44.589Z,11.40
2023-03-24T03:10:48.489Z,11.50
2023-03-24T03:14:01.344Z,11.40
2023-03-24T03:17:09.361Z,11.40
2023-03-24T03:20:21.647Z,11.40
2023-03-24T03:23:29.249Z,11.40
2023-03-24T03:26:32.969Z,11.40
2023-03-24T03:29:39.418Z,11.40
2023-03-24T03:32:54.225Z,11.30
2023-03-24T03:36:09.119Z,11.30
2023-03-24T03:39:21.165Z,11.30
2023-03-24T03:42:23.599Z,11.30
2023-03-24T03:45:25.416Z,11.30
2023-03-24T03:48:29.272Z,11.30
2023-03-24T03:51:33.725Z,11.20
2023-03-24T03:54:37.834Z,11.20
2023-03-24T03:57:41.063Z,11.20
2023-03-24T04:00:44.310Z,11.20
2023-03-24T04:03:46.071Z,11.20
2023-03-24T04:07:14.947Z,11.20
2023-03-24T04:10:54.237Z,11.30
2023-03-24T04:14:08.536Z,11.30
2023-03-24T04:17:35.075Z,11.30
2023-03-24T04:20:48.283Z,11.30
2023-03-24T04:24:05.324Z,11.30
2023-03-24T04:27:27.145Z,11.30
2023-03-24T04:30:43.000Z,11.30
2023-03-24T04:33:52.468Z,11.30
2023-03-24T04:37:09.150Z,11.30
2023-03-24T04:40:14.890Z,11.20
2023-03-24T04:43:20.600Z,11.20
2023-03-24T04:46:23.120Z,11.20
2023-03-24T04:49:25.505Z,11.20
2023-03-24T04:52:27.897Z,11.20
2023-03-24T04:55:38.876Z,11.10
2023-03-24T04:58:40.566Z,11.10
2023-03-24T05:01:49.967Z,11.10
2023-03-24T05:04:52.708Z,11.10
2023-03-24T05:07:56.892Z,11.00
2023-03-24T05:10:58.589Z,11.00
2023-03-24T05:14:00.248Z,11.00
2023-03-24T05:17:01.945Z,11.00
2023-03-24T05:20:07.355Z,11.00
2023-03-24T05:23:09.030Z,11.00
2023-03-24T05:26:11.243Z,11.00
2023-03-24T05:29:12.920Z,11.00
2023-03-24T05:32:15.429Z,11.00
2023-03-24T05:35:17.354Z,11.10
2023-03-24T05:38:19.520Z,11.10
2023-03-24T05:41:21.250Z,11.10
2023-03-24T05:44:22.981Z,11.10
2023-03-24T05:47:24.648Z,11.10
2023-03-24T05:50:26.792Z,11.20
2023-03-24T05:53:28.457Z,11.20
2023-03-24T05:56:31.370Z,11.20
2023-03-24T05:59:33.140Z,11.20
2023-03-24T06:02:34.962Z,11.20
2023-03-24T06:05:36.821Z,11.20
2023-03-24T06:08:38.484Z,11.20
2023-03-24T06:11:40.594Z,11.20
2023-03-24T06:14:42.993Z,11.30
2023-03-24T06:17:46.150Z,11.30
2023-03-24T06:20:50.779Z,11.30
2023-03-24T06:23:52.554Z,11.30
2023-03-24T06:27:02.030Z,11.30
2023-03-24T06:30:04.237Z,11.30
2023-03-24T06:33:08.243Z,11.30
2023-03-24T06:36:12.376Z,11.40
2023-03-24T06:39:14.088Z,11.40
2023-03-24T06:42:16.148Z,11.40
2023-03-24T06:45:17.926Z,11.50
2023-03-24T06:48:19.831Z,11.60
2023-03-24T06:51:21.589Z,11.60
2023-03-24T06:54:23.236Z,11.70
2023-03-24T06:57:25.099Z,11.70
2023-03-24T07:00:29.068Z,11.80
2023-03-24T07:03:31.586Z,11.80
2023-03-24T07:06:40.291Z,11.90
2023-03-24T07:09:45.299Z,11.90
2023-03-24T07:12:48.157Z,11.90
2023-03-24T07:15:50.018Z,12.00
2023-03-24T07:18:51.677Z,12.00
2023-03-24T07:21:53.443Z,12.00
2023-03-24T07:24:56.336Z,12.00
2023-03-24T07:27:58.340Z,12.00
2023-03-24T07:31:06.958Z,12.00
2023-03-24T07:34:09.215Z,12.00
2023-03-24T07:37:11.376Z,12.00
2023-03-24T07:40:13.855Z,11.90
2023-03-24T07:43:15.875Z,11.90
2023-03-24T07:46:17.747Z,11.80
2023-03-24T07:49:20.229Z,11.60
2023-03-24T07:52:22.011Z,11.40
2023-03-24T07:55:24.310Z,11.20
2023-03-24T07:58:26.050Z,11.10
2023-03-24T08:01:27.872Z,10.90
2023-03-24T08:04:29.741Z,10.90
2023-03-24T08:07:31.689Z,11.00
2023-03-24T08:10:34.040Z,11.30
2023-03-24T08:14:03.849Z,11.30
2023-03-24T08:17:05.587Z,11.50
2023-03-24T08:20:15.142Z,11.60
2023-03-24T08:23:18.106Z,11.80
2023-03-24T08:26:19.874Z,11.80
2023-03-24T08:29:21.580Z,11.90
2023-03-24T08:32:23.487Z,12.10
2023-03-24T08:35:28.879Z,12.60
2023-03-24T08:38:41.700Z,13.20
2023-03-24T08:41:43.372Z,13.50
2023-03-24T08:44:45.045Z,13.40
2023-03-24T08:47:48.379Z,13.40
2023-03-24T08:50:50.458Z,13.20
2023-03-24T08:53:52.570Z,13.20
2023-03-24T08:56:54.247Z,13.40
2023-03-24T08:59:55.972Z,13.50
2023-03-24T09:02:58.378Z,13.70
2023-03-24T09:06:00.487Z,13.80
2023-03-24T09:09:02.353Z,13.90
2023-03-24T09:12:04.171Z,14.00
2023-03-24T09:15:07.611Z,13.80
2023-03-24T09:18:09.330Z,13.60
2023-03-24T09:21:11.294Z,13.60
2023-03-24T09:24:13.377Z,13.60
2023-03-24T09:27:16.433Z,13.50
2023-03-24T09:30:19.198Z,13.30
2023-03-24T09:33:21.104Z,13.10
2023-03-24T09:36:22.792Z,12.90
2023-03-24T09:39:24.562Z,12.90
2023-03-24T09:42:30.561Z,12.90
2023-03-24T09:45:36.940Z,12.90
2023-03-24T09:48:51.038Z,12.80
2023-03-24T09:52:00.893Z,12.70
2023-03-24T09:55:03.842Z,12.80
2023-03-24T09:58:08.418Z,12.90
2023-03-24T10:01:14.443Z,12.90
2023-03-24T10:04:19.799Z,13.00
2023-03-24T10:08:04.864Z,13.10
2023-03-24T10:11:32.767Z,13.20
2023-03-24T10:14:40.587Z,13.20
2023-03-24T10:17:48.430Z,13.10
2023-03-24T10:21:00.940Z,13.00
2023-03-24T10:24:37.852Z,12.90
2023-03-24T10:27:52.507Z,12.80
2023-03-24T10:30:57.144Z,12.70
2023-03-24T10:33:59.985Z,12.70
2023-03-24T10:37:04.144Z,12.80
2023-03-24T10:40:16.641Z,12.90
2023-03-24T10:43:19.470Z,13.00
2023-03-24T10:46:24.543Z,13.30
2023-03-24T10:49:26.569Z,13.30
2023-03-24T10:52:38.660Z,13.40
2023-03-24T10:56:37.333Z,13.30
2023-03-24T10:59:54.087Z,13.30
2023-03-24T11:03:06.742Z,13.40
2023-03-24T11:06:18.133Z,13.40
2023-03-24T11:09:22.226Z,13.60
2023-03-24T11:12:27.810Z,13.70
2023-03-24T11:15:37.173Z,13.60
2023-03-24T11:18:49.608Z,13.50
2023-03-24T11:21:57.652Z,13.40
2023-03-24T11:24:59.451Z,13.40
2023-03-24T11:28:05.804Z,13.50
2023-03-24T11:31:10.641Z,13.60
2023-03-24T11:34:34.057Z,13.80
2023-03-24T11:37:37.460Z,13.90
2023-03-24T11:40:52.112Z,14.00
2023-03-24T11:44:20.527Z,13.90
2023-03-24T11:47:38.443Z,13.90
2023-03-24T11:50:41.942Z,13.80
2023-03-24T11:53:50.720Z,13.80
2023-03-24T11:56:56.450Z,13.80
2023-03-24T12:00:13.524Z,13.70
2023-03-24T12:03:16.096Z,13.70
2023-03-24T12:06:50.561Z,13.60
2023-03-24T12:10:39.938Z,13.40
2023-03-24T12:13:49.224Z,13.40
2023-03-24T12:17:03.708Z,13.40
2023-03-24T12:20:22.745Z,13.30
2023-03-24T12:23:45.657Z,13.30
2023-03-24T12:26:51.608Z,13.40
2023-03-24T12:30:00.860Z,13.60
2023-03-24T12:33:23.996Z,13.70
2023-03-24T12:36:45.807Z,13.80
2023-03-24T12:40:10.269Z,13.70
2023-03-24T12:43:36.017Z,13.70
2023-03-24T12:46:53.923Z,13.70
2023-03-24T12:50:05.584Z,13.70
2023-03-24T12:53:36.554Z,13.70
2023-03-24T12:56:43.334Z,13.60
2023-03-24T12:59:57.858Z,13.70
2023-03-24T13:03:04.797Z,13.80
2023-03-24T13:06:36.704Z,13.70
2023-03-24T13:09:59.214Z,13.60
2023-03-24T13:13:04.163Z,13.60
2023-03-24T13:16:23.036Z,13.50
2023-03-24T13:19:26.069Z,13.50
2023-03-24T13:22:29.148Z,13.40
2023-03-24T13:25:50.225Z,13.50
2023-03-24T13:29:16.813Z,13.50
2023-03-24T13:32:22.380Z,13.50
2023-03-24T13:35:27.096Z,13.60
2023-03-24T13:38:43.617Z,13.80
2023-03-24T13:41:51.744Z,13.90
2023-03-24T13:44:53.588Z,14.10
2023-03-24T13:48:05.855Z,14.30
2023-03-24T13:51:17.864Z,14.20
2023-03-24T13:54:26.767Z,14.10
2023-03-24T13:57:29.412Z,14.10
2023-03-24T14:00:31.379Z,14.00
2023-03-24T14:03:39.825Z,14.00
2023-03-24T14:06:50.754Z,14.00
2023-03-24T14:10:22.956Z,14.10
2023-03-24T14:13:35.730Z,14.20
2023-03-24T14:16:53.136Z,14.30
2023-03-24T14:20:04.901Z,14.20
2023-03-24T14:23:23.512Z,14.30
2023-03-24T14:26:25.372Z,14.20
2023-03-24T14:29:47.578Z,14.20
2023-03-24T14:32:53.662Z,14.20
2023-03-24T14:36:06.098Z,14.20
2023-03-24T14:39:22.839Z,14.20
2023-03-24T14:42:30.397Z,14.10
2023-03-24T14:45:53.774Z,14.10
2023-03-24T14:49:28.580Z,14.10
2023-03-24T14:52:40.051Z,14.10
2023-03-24T14:55:42.418Z,14.00
2023-03-24T14:58:48.733Z,14.10
2023-03-24T15:01:54.331Z,14.10
2023-03-24T15:05:14.132Z,14.20
2023-03-24T15:08:21.594Z,14.40
2023-03-24T15:11:36.267Z,14.40
2023-03-24T15:14:38.552Z,14.40
2023-03-24T15:17:44.412Z,14.50
2023-03-24T15:20:46.357Z,14.40
2023-03-24T15:23:48.976Z,14.30
2023-03-24T15:27:04.190Z,14.40
2023-03-24T15:30:13.945Z,14.40
2023-03-24T15:33:16.970Z,14.30
2023-03-24T15:36:23.225Z,14.30
2023-03-24T15:39:43.052Z,14.20
2023-03-24T15:42:46.616Z,14.20
2023-03-24T15:46:08.633Z,14.20
2023-03-24T15:49:39.728Z,14.10
2023-03-24T15:52:41.567Z,14.00
2023-03-24T15:55:43.802Z,14.00
2023-03-24T15:58:57.469Z,13.90
2023-03-24T16:01:59.756Z,13.90
2023-03-24T16:08:35.814Z,13.70
2023-03-24T16:11:37.608Z,13.70
2023-03-24T16:14:39.250Z,13.70
2023-03-24T16:17:41.217Z,13.70
2023-03-24T16:20:43.309Z,13.60
2023-03-24T16:24:08.992Z,13.60
2023-03-24T16:27:13.886Z,13.60
2023-03-24T16:30:24.976Z,13.50
2023-03-24T16:33:27.307Z,13.40
2023-03-24T16:36:29.205Z,13.40
2023-03-24T16:39:31.344Z,13.30
2023-03-24T16:42:33.053Z,13.20
2023-03-24T16:45:35.600Z,13.10
2023-03-24T16:48:37.667Z,13.10
2023-03-24T16:51:39.785Z,13.00
2023-03-24T16:54:41.604Z,13.10
2023-03-24T16:57:43.270Z,13.10
2023-03-24T17:00:45.882Z,13.00
2023-03-24T17:08:08.432Z,13.00
2023-03-24T17:11:13.208Z,13.00
2023-03-24T17:14:15.446Z,12.90
2023-03-24T17:17:17.243Z,12.90
2023-03-24T17:20:20.270Z,12.90
2023-03-24T17:23:21.968Z,12.80
2023-03-24T17:26:24.423Z,12.90
2023-03-24T17:29:26.245Z,12.80
2023-03-24T17:32:32.514Z,12.80
2023-03-24T17:35:34.205Z,12.80
2023-03-24T17:38:36.582Z,12.40
2023-03-24T17:41:38.242Z,11.50
2023-03-24T17:44:39.878Z,10.90
2023-03-24T17:47:41.813Z,10.50
2023-03-24T17:50:43.558Z,10.30
2023-03-24T17:53:46.497Z,10.10
2023-03-24T17:56:48.241Z,10.10
2023-03-24T17:59:51.792Z,10.00
2023-03-24T18:02:54.298Z,9.90
2023-03-24T18:05:56.466Z,9.90
2023-03-24T18:08:58.312Z,9.90
2023-03-24T18:12:00.005Z,10.00
2023-03-24T18:15:01.961Z,10.00
2023-03-24T18:18:03.714Z,10.10
2023-03-24T18:21:07.273Z,10.30
2023-03-24T18:24:09.198Z,10.20
2023-03-24T18:27:11.058Z,10.30
2023-03-24T18:30:14.020Z,10.20
2023-03-24T18:33:15.988Z,10.10
2023-03-24T18:36:26.789Z,10.10
2023-03-24T18:39:28.525Z,9.90
2023-03-24T18:42:30.651Z,9.90
2023-03-24T18:45:32.380Z,9.90
2023-03-24T18:48:34.060Z,9.90
2023-03-24T18:51:35.845Z,10.00
2023-03-24T18:54:37.563Z,9.90
2023-03-24T18:57:40.171Z,9.90
2023-03-24T19:00:44.036Z,9.80
2023-03-24T19:03:45.786Z,9.80
2023-03-24T19:06:50.178Z,9.70
2023-03-24T19:09:52.601Z,9.70
2023-03-24T19:12:55.201Z,9.70
2023-03-24T19:15:56.936Z,9.70
2023-03-24T19:19:00.070Z,9.60
2023-03-24T19:22:01.848Z,9.50
2023-03-24T19:25:03.833Z,9.50
2023-03-24T19:28:05.769Z,9.50
2023-03-24T19:31:09.784Z,9.50
2023-03-24T19:34:11.515Z,9.50
2023-03-24T19:37:13.896Z,9.50
2023-03-24T19:40:15.745Z,9.50
2023-03-24T19:43:17.860Z,9.40
2023-03-24T19:46:22.672Z,9.50
2023-03-24T19:49:24.546Z,9.50
2023-03-24T19:52:26.346Z,9.50
2023-03-24T19:55:29.092Z,9.50
2023-03-24T19:58:34.162Z,9.50
2023-03-24T20:01:36.634Z,9.50
2023-03-24T20:04:38.325Z,9.50
2023-03-24T20:07:40.012Z,9.50
2023-03-24T20:10:41.764Z,9.50
2023-03-24T20:13:43.514Z,9.50
2023-03-24T20:16:45.228Z,9.40
2023-03-24T20:19:47.620Z,9.40
2023-03-24T20:22:49.384Z,9.30
2023-03-24T20:25:52.013Z,9.30
2023-03-24T20:28:54.008Z,9.30
2023-03-24T20:31:55.792Z,9.40
2023-03-24T20:34:57.584Z,9.40
2023-03-24T20:37:59.375Z,9.40
2023-03-24T20:41:12.309Z,9.50
2023-03-24T20:44:14.182Z,9.40
2023-03-24T20:47:16.115Z,9.40
2023-03-24T20:50:17.866Z,9.30
2023-03-24T20:53:20.130Z,9.30
2023-03-24T20:56:22.141Z,9.20
2023-03-24T20:59:23.877Z,9.20
2023-03-24T21:02:26.747Z,9.20
2023-03-24T21:05:28.485Z,9.20
2023-03-24T21:08:30.475Z,9.20
2023-03-24T21:11:33.057Z,9.10
2023-03-24T21:14:35.006Z,9.10
2023-03-24T21:17:36.728Z,9.00
2023-03-24T21:20:39.816Z,8.90
2023-03-24T21:23:42.990Z,8.90
2023-03-24T21:26:46.247Z,8.80
2023-03-24T21:29:47.998Z,8.70
2023-03-24T21:32:51.595Z,8.80
2023-03-24T21:35:55.391Z,8.80
2023-03-24T21:38:58.117Z,8.80
2023-03-24T21:42:02.821Z,8.80
2023-03-24T21:45:05.141Z,8.80
2023-03-24T21:48:07.551Z,8.80
2023-03-24T21:51:10.000Z,8.80
2023-03-24T21:54:14.830Z,8.80
2023-03-24T21:57:17.494Z,8.90
2023-03-24T22:00:22.092Z,8.90
2023-03-24T22:03:25.638Z,8.90
2023-03-24T22:06:28.655Z,8.90
2023-03-24T22:09:30.449Z,8.90
2023-03-24T22:12:32.862Z,8.90
2023-03-24T22:15:35.577Z,9.00
2023-03-24T22:18:38.444Z,9.00
2023-03-24T22:21:40.199Z,9.00
2023-03-24T22:24:41.903Z,9.00
2023-03-24T22:27:44.286Z,9.00
2023-03-24T22:30:46.423Z,9.00
2023-03-24T22:33:48.105Z,9.00
2023-03-24T22:36:49.933Z,8.90
2023-03-24T22:39:51.545Z,8.90
2023-03-24T22:42:53.565Z,8.90
2023-03-24T22:45:55.231Z,9.00
2023-03-24T22:48:56.865Z,9.00
2023-03-24T22:51:59.604Z,9.00
2023-03-24T22:55:01.433Z,9.00
2023-03-24T22:58:04.470Z,9.00
2023-03-24T23:01:06.566Z,9.00
2023-03-24T23:04:08.444Z,9.00
2023-03-24T23:07:10.224Z,8.90
2023-03-24T23:10:12.880Z,8.90
2023-03-24T23:13:16.827Z,9.00
2023-03-24T23:16:20.704Z,9.00
2023-03-24T23:19:23.225Z,9.00
2023-03-24T23:22:25.047Z,9.00
2023-03-24T23:25:30.495Z,9.00
2023-03-24T23:28:33.070Z,9.00
2023-03-24T23:31:35.887Z,9.00
2023-03-24T23:34:38.106Z,8.90
2023-03-24T23:37:40.016Z,8.90
2023-03-24T23:40:41.757Z,8.90
2023-03-24T23:43:46.868Z,8.80
2023-03-24T23:46:48.548Z,8.80
2023-03-24T23:49:50.395Z,8.80
2023-03-24T23:52:52.613Z,8.80
2023-03-24T23:56:00.920Z,8.80
2023-03-24T23:59:07.215Z,8.80
